sensor_id;sensor_type;location;lat;lon;timestamp;temperature;humidity
17968;DHT22;9109;48.050;11.696;2023-04-25T03:48:12;7.20;99.90
17968;DHT22;9109;48.050;11.696;2023-04-25T03:51:13;7.00;99.90
17968;DHT22;9109;48.050;11.696;2023-04-25T03:54:16;7.00;99.90
17968;DHT22;9109;48.050;11.696;2023-04-25T03:57:18;7.00;99.90
17968;DHT22;9109;48.050;11.696;2023-04-25T04:00:20;7.00;99.90
17968;DHT22;9109;48.050;11.696;2023-04-25T04:03:23;7.00;99.90
17968;DHT22;9109;48.050;11.696;2023-04-25T04:06:25;6.90;99.90
17968;DHT22;9109;48.050;11.696;2023-04-25T04:09:27;6.80;99.90
17968;DHT22;9109;48.050;11.696;2023-04-25T04:12:29;6.70;99.90
17968;DHT22;9109;48.050;11.696;2023-04-25T04:15:31;6.60;99.90
17968;DHT22;9109;48.050;11.696;2023-04-25T04:18:34;6.70;99.90
17968;DHT22;9109;48.050;11.696;2023-04-25T04:21:36;6.80;99.90
17968;DHT22;9109;48.050;11.696;2023-04-25T04:24:38;7.00;99.90
17968;DHT22;9109;48.050;11.696;2023-04-25T04:27:42;7.00;99.90
17968;DHT22;9109;48.050;11.696;2023-04-25T04:30:45;7.00;99.90
17968;DHT22;9109;48.050;11.696;2023-04-25T04:33:48;7.10;99.90
17968;DHT22;9109;48.050;11.696;2023-04-25T04:36:51;7.20;99.90
17968;DHT22;9109;48.050;11.696;2023-04-25T04:39:53;7.20;99.90
17968;DHT22;9109;48.050;11.696;2023-04-25T04:42:55;7.30;99.90
17968;DHT22;9109;48.050;11.696;2023-04-25T04:45:57;7.30;99.90
17968;DHT22;9109;48.050;11.696;2023-04-25T04:49:01;7.30;99.90
17968;DHT22;9109;48.050;11.696;2023-04-25T04:52:06;7.30;99.90
17968;DHT22;9109;48.050;11.696;2023-04-25T04:55:08;7.20;99.90
17968;DHT22;9109;48.050;11.696;2023-04-25T04:58:10;7.20;99.90
17968;DHT22;9109;48.050;11.696;2023-04-25T05:01:12;7.20;99.90
17968;DHT22;9109;48.050;11.696;2023-04-25T05:04:17;7.20;99.90
17968;DHT22;9109;48.050;11.696;2023-04-25T05:07:22;7.10;99.90
17968;DHT22;9109;48.050;11.696;2023-04-25T05:10:26;7.10;99.90
17968;DHT22;9109;48.050;11.696;2023-04-25T05:13:33;7.20;99.90
17968;DHT22;9109;48.050;11.696;2023-04-25T05:16:48;7.30;99.90
17968;DHT22;9109;48.050;11.696;2023-04-25T05:19:51;7.30;99.90
17968;DHT22;9109;48.050;11.696;2023-04-25T05:23:02;7.40;99.90
17968;DHT22;9109;48.050;11.696;2023-04-25T05:26:16;7.50;99.90
17968;DHT22;9109;48.050;11.696;2023-04-25T05:29:18;7.50;99.90
17968;DHT22;9109;48.050;11.696;2023-04-25T05:32:19;7.60;99.90
17968;DHT22;9109;48.050;11.696;2023-04-25T05:35:23;7.50;99.90
17968;DHT22;9109;48.050;11.696;2023-04-25T05:38:25;7.50;99.90
17968;DHT22;9109;48.050;11.696;2023-04-25T05:41:26;7.50;99.90
17968;DHT22;9109;48.050;11.696;2023-04-25T05:44:30;7.60;99.90
17968;DHT22;9109;48.050;11.696;2023-04-25T05:47:32;7.60;99.90
17968;DHT22;9109;48.050;11.696;2023-04-25T05:50:35;7.50;99.90
17968;DHT22;9109;48.050;11.696;2023-04-25T05:53:37;7.50;99.90
17968;DHT22;9109;48.050;11.696;2023-04-25T05:56:39;7.70;99.90
17968;DHT22;9109;48.050;11.696;2023-04-25T05:59:42;7.80;99.90
17968;DHT22;9109;48.050;11.696;2023-04-25T06:02:44;7.90;99.90
17968;DHT22;9109;48.050;11.696;2023-04-25T06:05:47;7.90;99.90
17968;DHT22;9109;48.050;11.696;2023-04-25T06:08:49;8.00;99.90
17968;DHT22;9109;48.050;11.696;2023-04-25T06:11:51;8.20;99.90
17968;DHT22;9109;48.050;11.696;2023-04-25T06:14:53;8.10;99.90
17968;DHT22;9109;48.050;11.696;2023-04-25T06:17:55;8.20;99.90
17968;DHT22;9109;48.050;11.696;2023-04-25T06:20:58;8.30;99.90
17968;DHT22;9109;48.050;11.696;2023-04-25T06:24:00;8.50;99.90
17968;DHT22;9109;48.050;11.696;2023-04-25T06:27:02;8.70;99.90
17968;DHT22;9109;48.050;11.696;2023-04-25T06:30:05;8.60;99.90
17968;DHT22;9109;48.050;11.696;2023-04-25T06:33:07;8.50;99.90
17968;DHT22;9109;48.050;11.696;2023-04-25T06:36:11;8.30;99.90
17968;DHT22;9109;48.050;11.696;2023-04-25T06:39:23;8.10;99.90
17968;DHT22;9109;48.050;11.696;2023-04-25T06:42:25;8.00;99.90
17968;DHT22;9109;48.050;11.696;2023-04-25T06:45:29;8.10;99.90
17968;DHT22;9109;48.050;11.696;2023-04-25T06:48:37;8.10;99.90
17968;DHT22;9109;48.050;11.696;2023-04-25T06:51:44;8.40;99.90
17968;DHT22;9109;48.050;11.696;2023-04-25T06:54:50;8.60;99.90
17968;DHT22;9109;48.050;11.696;2023-04-25T06:57:52;8.80;99.90
17968;DHT22;9109;48.050;11.696;2023-04-25T07:00:53;8.80;99.90
17968;DHT22;9109;48.050;11.696;2023-04-25T07:03:55;8.80;99.90
17968;DHT22;9109;48.050;11.696;2023-04-25T07:07:02;8.70;99.90
17968;DHT22;9109;48.050;11.696;2023-04-25T07:10:05;8.60;99.90
17968;DHT22;9109;48.050;11.696;2023-04-25T07:13:07;8.60;99.90
17968;DHT22;9109;48.050;11.696;2023-04-25T07:16:10;8.70;99.90
17968;DHT22;9109;48.050;11.696;2023-04-25T07:19:14;8.70;99.90
17968;DHT22;9109;48.050;11.696;2023-04-25T07:22:17;8.50;99.90
17968;DHT22;9109;48.050;11.696;2023-04-25T07:25:19;8.50;99.90
17968;DHT22;9109;48.050;11.696;2023-04-25T07:28:21;8.40;99.90
17968;DHT22;9109;48.050;11.696;2023-04-25T07:31:23;8.50;99.90
17968;DHT22;9109;48.050;11.696;2023-04-25T07:34:25;8.50;99.90
17968;DHT22;9109;48.050;11.696;2023-04-25T07:37:29;8.60;99.90
17968;DHT22;9109;48.050;11.696;2023-04-25T07:40:30;8.70;99.90
17968;DHT22;9109;48.050;11.696;2023-04-25T07:43:32;8.80;99.90
17968;DHT22;9109;48.050;11.696;2023-04-25T07:46:34;8.80;99.90
17968;DHT22;9109;48.050;11.696;2023-04-25T07:49:39;8.90;99.90
17968;DHT22;9109;48.050;11.696;2023-04-25T07:52:45;9.00;99.90
17968;DHT22;9109;48.050;11.696;2023-04-25T07:55:47;9.10;99.90
17968;DHT22;9109;48.050;11.696;2023-04-25T07:58:51;9.10;99.90
17968;DHT22;9109;48.050;11.696;2023-04-25T08:01:53;9.30;99.90
17968;DHT22;9109;48.050;11.696;2023-04-25T08:04:55;9.40;99.90
17968;DHT22;9109;48.050;11.696;2023-04-25T08:08:02;9.50;99.90
17968;DHT22;9109;48.050;11.696;2023-04-25T08:11:05;9.70;99.90
17968;DHT22;9109;48.050;11.696;2023-04-25T08:14:10;9.70;99.90
17968;DHT22;9109;48.050;11.696;2023-04-25T08:17:15;9.80;99.90
17968;DHT22;9109;48.050;11.696;2023-04-25T08:20:31;10.00;99.90
17968;DHT22;9109;48.050;11.696;2023-04-25T08:23:39;10.30;99.90
17968;DHT22;9109;48.050;11.696;2023-04-25T08:26:55;10.50;99.90
17968;DHT22;9109;48.050;11.696;2023-04-25T08:29:59;10.50;99.90
17968;DHT22;9109;48.050;11.696;2023-04-25T08:33:01;10.50;99.80
17968;DHT22;9109;48.050;11.696;2023-04-25T08:36:13;10.60;99.90
17968;DHT22;9109;48.050;11.696;2023-04-25T08:39:20;10.70;99.90
17968;DHT22;9109;48.050;11.696;2023-04-25T08:42:31;11.00;99.90
17968;DHT22;9109;48.050;11.696;2023-04-25T08:45:51;11.10;99.90
17968;DHT22;9109;48.050;11.696;2023-04-25T08:49:01;11.00;97.80
17968;DHT22;9109;48.050;11.696;2023-04-25T08:52:09;10.90;95.80
17968;DHT22;9109;48.050;11.696;2023-04-25T08:55:14;10.50;94.90
17968;DHT22;9109;48.050;11.696;2023-04-25T08:58:18;10.40;96.10
17968;DHT22;9109;48.050;11.696;2023-04-25T09:01:21;10.50;97.80
17968;DHT22;9109;48.050;11.696;2023-04-25T09:04:26;10.50;97.60
17968;DHT22;9109;48.050;11.696;2023-04-25T09:07:44;10.80;98.00
17968;DHT22;9109;48.050;11.696;2023-04-25T09:10:48;11.00;99.90
17968;DHT22;9109;48.050;11.696;2023-04-25T09:14:14;11.00;99.00
17968;DHT22;9109;48.050;11.696;2023-04-25T09:17:25;11.10;99.80
17968;DHT22;9109;48.050;11.696;2023-04-25T09:20:35;11.20;98.40
17968;DHT22;9109;48.050;11.696;2023-04-25T09:23:46;11.30;98.40
17968;DHT22;9109;48.050;11.696;2023-04-25T09:27:05;11.30;98.10
17968;DHT22;9109;48.050;11.696;2023-04-25T09:30:15;11.10;98.00
17968;DHT22;9109;48.050;11.696;2023-04-25T09:33:27;11.00;99.10
17968;DHT22;9109;48.050;11.696;2023-04-25T09:36:43;11.00;99.10
17968;DHT22;9109;48.050;11.696;2023-04-25T09:39:47;11.20;95.90
17968;DHT22;9109;48.050;11.696;2023-04-25T09:42:50;11.40;94.30
17968;DHT22;9109;48.050;11.696;2023-04-25T09:45:57;11.50;97.60
17968;DHT22;9109;48.050;11.696;2023-04-25T09:49:09;11.40;96.20
17968;DHT22;9109;48.050;11.696;2023-04-25T09:52:14;11.40;96.30
17968;DHT22;9109;48.050;11.696;2023-04-25T09:55:19;11.30;96.50
17968;DHT22;9109;48.050;11.696;2023-04-25T09:58:45;11.10;97.80
17968;DHT22;9109;48.050;11.696;2023-04-25T10:01:50;11.20;98.00
17968;DHT22;9109;48.050;11.696;2023-04-25T10:05:06;11.20;99.80
17968;DHT22;9109;48.050;11.696;2023-04-25T10:08:14;11.40;96.60
17968;DHT22;9109;48.050;11.696;2023-04-25T10:11:27;11.80;93.90
17968;DHT22;9109;48.050;11.696;2023-04-25T10:14:31;11.90;90.70
17968;DHT22;9109;48.050;11.696;2023-04-25T10:17:34;12.20;93.10
17968;DHT22;9109;48.050;11.696;2023-04-25T10:20:37;12.10;91.90
17968;DHT22;9109;48.050;11.696;2023-04-25T10:23:40;12.00;91.90
17968;DHT22;9109;48.050;11.696;2023-04-25T10:26:42;11.90;92.00
17968;DHT22;9109;48.050;11.696;2023-04-25T10:30:00;12.00;90.80
17968;DHT22;9109;48.050;11.696;2023-04-25T10:33:16;12.00;90.90
17968;DHT22;9109;48.050;11.696;2023-04-25T10:36:20;12.10;89.00
17968;DHT22;9109;48.050;11.696;2023-04-25T10:39:38;11.90;88.30
17968;DHT22;9109;48.050;11.696;2023-04-25T10:42:45;12.00;91.10
17968;DHT22;9109;48.050;11.696;2023-04-25T10:45:54;12.30;91.60
17968;DHT22;9109;48.050;11.696;2023-04-25T10:49:01;12.70;88.60
17968;DHT22;9109;48.050;11.696;2023-04-25T10:52:18;12.70;83.20
17968;DHT22;9109;48.050;11.696;2023-04-25T10:55:20;12.80;84.50
17968;DHT22;9109;48.050;11.696;2023-04-25T10:58:22;12.90;87.60
17968;DHT22;9109;48.050;11.696;2023-04-25T11:01:26;12.80;85.20
17968;DHT22;9109;48.050;11.696;2023-04-25T11:04:40;12.60;89.60
17968;DHT22;9109;48.050;11.696;2023-04-25T11:07:50;12.10;85.10
17968;DHT22;9109;48.050;11.696;2023-04-25T11:10:52;11.90;86.40
17968;DHT22;9109;48.050;11.696;2023-04-25T11:13:54;11.70;88.80
17968;DHT22;9109;48.050;11.696;2023-04-25T11:17:03;11.30;88.90
17968;DHT22;9109;48.050;11.696;2023-04-25T11:20:09;11.30;90.50
17968;DHT22;9109;48.050;11.696;2023-04-25T11:23:19;11.10;90.40
17968;DHT22;9109;48.050;11.696;2023-04-25T11:26:22;11.00;91.30
17968;DHT22;9109;48.050;11.696;2023-04-25T11:29:32;10.90;93.20
17968;DHT22;9109;48.050;11.696;2023-04-25T11:32:35;10.40;95.40
17968;DHT22;9109;48.050;11.696;2023-04-25T11:35:40;10.00;98.50
17968;DHT22;9109;48.050;11.696;2023-04-25T11:38:44;9.80;99.90
17968;DHT22;9109;48.050;11.696;2023-04-25T11:41:49;9.50;99.90
17968;DHT22;9109;48.050;11.696;2023-04-25T11:44:51;9.10;99.90
17968;DHT22;9109;48.050;11.696;2023-04-25T11:47:55;9.00;99.90
17968;DHT22;9109;48.050;11.696;2023-04-25T11:51:04;9.00;99.90
17968;DHT22;9109;48.050;11.696;2023-04-25T11:54:08;8.90;99.90
17968;DHT22;9109;48.050;11.696;2023-04-25T11:57:11;8.80;99.90
17968;DHT22;9109;48.050;11.696;2023-04-25T12:00:15;8.80;99.90
17968;DHT22;9109;48.050;11.696;2023-04-25T12:07:46;8.80;99.90
17968;DHT22;9109;48.050;11.696;2023-04-25T12:10:59;8.60;99.90
17968;DHT22;9109;48.050;11.696;2023-04-25T12:14:04;8.60;99.90
17968;DHT22;9109;48.050;11.696;2023-04-25T12:17:13;8.60;99.90
17968;DHT22;9109;48.050;11.696;2023-04-25T12:20:17;8.70;99.90
17968;DHT22;9109;48.050;11.696;2023-04-25T12:23:26;8.80;99.90
17968;DHT22;9109;48.050;11.696;2023-04-25T12:26:48;8.90;99.90
17968;DHT22;9109;48.050;11.696;2023-04-25T12:29:52;8.90;99.90
17968;DHT22;9109;48.050;11.696;2023-04-25T12:33:03;9.00;99.90
17968;DHT22;9109;48.050;11.696;2023-04-25T12:36:11;9.00;99.90
17968;DHT22;9109;48.050;11.696;2023-04-25T12:39:24;9.20;99.90
17968;DHT22;9109;48.050;11.696;2023-04-25T12:42:26;9.40;99.90
17968;DHT22;9109;48.050;11.696;2023-04-25T12:45:31;9.50;99.90
17968;DHT22;9109;48.050;11.696;2023-04-25T12:48:34;9.50;99.90
17968;DHT22;9109;48.050;11.696;2023-04-25T12:51:37;9.60;99.90
17968;DHT22;9109;48.050;11.696;2023-04-25T12:54:41;9.80;99.90
17968;DHT22;9109;48.050;11.696;2023-04-25T12:57:42;9.90;99.90
17968;DHT22;9109;48.050;11.696;2023-04-25T13:00:45;10.00;99.90
17968;DHT22;9109;48.050;11.696;2023-04-25T13:03:47;10.10;99.90
17968;DHT22;9109;48.050;11.696;2023-04-25T13:06:49;10.20;99.90
17968;DHT22;9109;48.050;11.696;2023-04-25T13:09:52;10.20;99.90
17968;DHT22;9109;48.050;11.696;2023-04-25T13:12:54;10.00;99.90
17968;DHT22;9109;48.050;11.696;2023-04-25T13:15:56;9.80;99.90
17968;DHT22;9109;48.050;11.696;2023-04-25T13:18:58;9.90;99.90
17968;DHT22;9109;48.050;11.696;2023-04-25T13:22:05;9.70;99.90
17968;DHT22;9109;48.050;11.696;2023-04-25T13:25:21;9.80;99.90
17968;DHT22;9109;48.050;11.696;2023-04-25T13:28:29;9.90;99.90
17968;DHT22;9109;48.050;11.696;2023-04-25T13:31:33;9.80;99.90
17968;DHT22;9109;48.050;11.696;2023-04-25T13:34:45;9.90;99.90
17968;DHT22;9109;48.050;11.696;2023-04-25T13:37:51;9.90;99.90
17968;DHT22;9109;48.050;11.696;2023-04-25T13:40:57;9.90;99.90
17968;DHT22;9109;48.050;11.696;2023-04-25T13:44:03;9.80;99.90
17968;DHT22;9109;48.050;11.696;2023-04-25T13:47:07;9.50;99.90
17968;DHT22;9109;48.050;11.696;2023-04-25T13:50:11;9.30;99.90
17968;DHT22;9109;48.050;11.696;2023-04-25T13:53:18;9.30;99.90
17968;DHT22;9109;48.050;11.696;2023-04-25T13:56:32;9.10;99.90
17968;DHT22;9109;48.050;11.696;2023-04-25T13:59:34;9.10;99.90
17968;DHT22;9109;48.050;11.696;2023-04-25T14:02:42;9.10;99.90
17968;DHT22;9109;48.050;11.696;2023-04-25T14:09:23;9.50;99.90
17968;DHT22;9109;48.050;11.696;2023-04-25T14:12:35;9.30;99.90
17968;DHT22;9109;48.050;11.696;2023-04-25T14:16:00;8.80;99.90
17968;DHT22;9109;48.050;11.696;2023-04-25T14:19:23;8.80;99.90
17968;DHT22;9109;48.050;11.696;2023-04-25T14:22:35;8.70;99.90
17968;DHT22;9109;48.050;11.696;2023-04-25T14:25:54;8.60;99.90
17968;DHT22;9109;48.050;11.696;2023-04-25T14:29:31;8.70;99.90
17968;DHT22;9109;48.050;11.696;2023-04-25T14:32:41;8.60;99.90
17968;DHT22;9109;48.050;11.696;2023-04-25T14:35:47;8.60;99.90
17968;DHT22;9109;48.050;11.696;2023-04-25T14:39:16;8.70;99.90
17968;DHT22;9109;48.050;11.696;2023-04-25T14:43:05;8.70;99.90
17968;DHT22;9109;48.050;11.696;2023-04-25T14:46:38;8.70;99.90
17968;DHT22;9109;48.050;11.696;2023-04-25T14:49:54;8.70;99.90
17968;DHT22;9109;48.050;11.696;2023-04-25T14:53:05;8.80;99.90
17968;DHT22;9109;48.050;11.696;2023-04-25T14:56:19;9.00;99.90
17968;DHT22;9109;48.050;11.696;2023-04-25T14:59:23;9.20;99.90
17968;DHT22;9109;48.050;11.696;2023-04-25T15:02:30;9.50;99.90
17968;DHT22;9109;48.050;11.696;2023-04-25T15:05:32;9.90;99.90
17968;DHT22;9109;48.050;11.696;2023-04-25T15:08:34;10.10;99.90
17968;DHT22;9109;48.050;11.696;2023-04-25T15:11:36;10.20;99.90
17968;DHT22;9109;48.050;11.696;2023-04-25T15:14:38;10.30;99.90
17968;DHT22;9109;48.050;11.696;2023-04-25T15:17:42;10.10;99.90
17968;DHT22;9109;48.050;11.696;2023-04-25T15:20:44;10.00;99.90
17968;DHT22;9109;48.050;11.696;2023-04-25T15:23:48;10.00;99.90
17968;DHT22;9109;48.050;11.696;2023-04-25T15:26:52;9.70;99.90
17968;DHT22;9109;48.050;11.696;2023-04-25T15:29:57;9.80;99.90
17968;DHT22;9109;48.050;11.696;2023-04-25T15:33:01;9.80;99.90
17968;DHT22;9109;48.050;11.696;2023-04-25T15:36:14;10.00;99.90
17968;DHT22;9109;48.050;11.696;2023-04-25T15:39:27;10.00;99.90
17968;DHT22;9109;48.050;11.696;2023-04-25T15:42:29;10.00;99.90
17968;DHT22;9109;48.050;11.696;2023-04-25T15:45:31;10.10;99.90
17968;DHT22;9109;48.050;11.696;2023-04-25T15:48:52;10.20;99.90
17968;DHT22;9109;48.050;11.696;2023-04-25T15:51:57;10.20;99.90
17968;DHT22;9109;48.050;11.696;2023-04-25T15:55:11;10.30;99.90
17968;DHT22;9109;48.050;11.696;2023-04-25T15:58:34;10.30;99.90
17968;DHT22;9109;48.050;11.696;2023-04-25T16:02:07;10.20;99.90
17968;DHT22;9109;48.050;11.696;2023-04-25T16:05:35;10.10;99.90
17968;DHT22;9109;48.050;11.696;2023-04-25T16:08:45;10.00;99.90
17968;DHT22;9109;48.050;11.696;2023-04-25T16:11:47;10.10;99.90
17968;DHT22;9109;48.050;11.696;2023-04-25T16:14:49;10.10;99.90
17968;DHT22;9109;48.050;11.696;2023-04-25T16:17:51;10.10;99.90
17968;DHT22;9109;48.050;11.696;2023-04-25T16:20:54;10.10;99.90
17968;DHT22;9109;48.050;11.696;2023-04-25T16:23:56;10.00;99.90
17968;DHT22;9109;48.050;11.696;2023-04-25T16:26:58;9.90;99.90
17968;DHT22;9109;48.050;11.696;2023-04-25T16:29:59;9.80;99.90
17968;DHT22;9109;48.050;11.696;2023-04-25T16:33:01;9.90;99.90
17968;DHT22;9109;48.050;11.696;2023-04-25T16:36:06;9.80;99.90
17968;DHT22;9109;48.050;11.696;2023-04-25T16:39:08;9.90;99.90
17968;DHT22;9109;48.050;11.696;2023-04-25T16:42:10;9.90;99.90
17968;DHT22;9109;48.050;11.696;2023-04-25T16:45:12;9.80;99.90
17968;DHT22;9109;48.050;11.696;2023-04-25T16:48:16;9.90;99.90
17968;DHT22;9109;48.050;11.696;2023-04-25T16:51:21;9.80;99.90
17968;DHT22;9109;48.050;11.696;2023-04-25T16:54:23;9.80;99.90
17968;DHT22;9109;48.050;11.696;2023-04-25T16:57:26;9.80;99.90
17968;DHT22;9109;48.050;11.696;2023-04-25T17:00:27;9.90;99.90
17968;DHT22;9109;48.050;11.696;2023-04-25T17:03:29;9.80;99.90
17968;DHT22;9109;48.050;11.696;2023-04-25T17:06:33;9.70;99.90
17968;DHT22;9109;48.050;11.696;2023-04-25T17:09:35;9.70;99.90
17968;DHT22;9109;48.050;11.696;2023-04-25T17:12:38;9.60;99.90
17968;DHT22;9109;48.050;11.696;2023-04-25T17:15:40;9.60;99.90
17968;DHT22;9109;48.050;11.696;2023-04-25T17:18:42;9.50;99.90
17968;DHT22;9109;48.050;11.696;2023-04-25T17:21:45;9.50;99.90
17968;DHT22;9109;48.050;11.696;2023-04-25T17:24:47;9.60;99.90
17968;DHT22;9109;48.050;11.696;2023-04-25T17:27:49;9.60;99.90
17968;DHT22;9109;48.050;11.696;2023-04-25T17:30:51;9.50;99.90
17968;DHT22;9109;48.050;11.696;2023-04-25T17:33:54;9.50;99.90
17968;DHT22;9109;48.050;11.696;2023-04-25T17:36:58;9.50;99.90
17968;DHT22;9109;48.050;11.696;2023-04-25T17:40:00;9.50;99.90
17968;DHT22;9109;48.050;11.696;2023-04-25T17:43:04;9.50;99.90
17968;DHT22;9109;48.050;11.696;2023-04-25T17:46:06;9.50;99.90
17968;DHT22;9109;48.050;11.696;2023-04-25T17:49:08;9.40;99.90
17968;DHT22;9109;48.050;11.696;2023-04-25T17:52:12;9.40;99.90
17968;DHT22;9109;48.050;11.696;2023-04-25T17:55:14;9.40;99.90
17968;DHT22;9109;48.050;11.696;2023-04-25T17:58:16;9.40;99.90
17968;DHT22;9109;48.050;11.696;2023-04-25T18:01:18;9.40;99.90
17968;DHT22;9109;48.050;11.696;2023-04-25T18:04:20;9.40;99.90
17968;DHT22;9109;48.050;11.696;2023-04-25T18:07:23;9.40;99.90
17968;DHT22;9109;48.050;11.696;2023-04-25T18:10:28;9.40;99.90
17968;DHT22;9109;48.050;11.696;2023-04-25T18:13:29;9.50;99.90
17968;DHT22;9109;48.050;11.696;2023-04-25T18:16:31;9.50;99.90
17968;DHT22;9109;48.050;11.696;2023-04-25T18:19:33;9.50;99.90
17968;DHT22;9109;48.050;11.696;2023-04-25T18:22:37;9.40;99.90
17968;DHT22;9109;48.050;11.696;2023-04-25T18:25:39;9.40;99.90
17968;DHT22;9109;48.050;11.696;2023-04-25T18:28:41;9.40;99.90
17968;DHT22;9109;48.050;11.696;2023-04-25T18:31:44;9.40;99.90
17968;DHT22;9109;48.050;11.696;2023-04-25T18:34:46;9.40;99.90
17968;DHT22;9109;48.050;11.696;2023-04-25T18:37:51;9.30;99.90
17968;DHT22;9109;48.050;11.696;2023-04-25T18:40:53;9.30;99.90
17968;DHT22;9109;48.050;11.696;2023-04-25T18:43:55;9.30;99.90
17968;DHT22;9109;48.050;11.696;2023-04-25T18:47:00;9.20;99.90
17968;DHT22;9109;48.050;11.696;2023-04-25T18:50:02;9.00;99.90
17968;DHT22;9109;48.050;11.696;2023-04-25T18:53:07;8.70;99.90
17968;DHT22;9109;48.050;11.696;2023-04-25T18:56:09;8.30;99.90
17968;DHT22;9109;48.050;11.696;2023-04-25T18:59:12;8.10;99.90
17968;DHT22;9109;48.050;11.696;2023-04-25T19:02:15;7.90;99.90
17968;DHT22;9109;48.050;11.696;2023-04-25T19:05:17;8.10;99.90
17968;DHT22;9109;48.050;11.696;2023-04-25T19:08:20;8.30;99.90
17968;DHT22;9109;48.050;11.696;2023-04-25T19:11:22;8.40;99.90
17968;DHT22;9109;48.050;11.696;2023-04-25T19:14:24;8.40;99.90
17968;DHT22;9109;48.050;11.696;2023-04-25T19:17:27;8.40;99.90
17968;DHT22;9109;48.050;11.696;2023-04-25T19:20:29;8.40;99.90
17968;DHT22;9109;48.050;11.696;2023-04-25T19:23:36;8.40;99.90
17968;DHT22;9109;48.050;11.696;2023-04-25T19:26:38;8.40;99.90
17968;DHT22;9109;48.050;11.696;2023-04-25T19:29:40;8.40;99.90
17968;DHT22;9109;48.050;11.696;2023-04-25T19:32:47;8.40;99.90
17968;DHT22;9109;48.050;11.696;2023-04-25T19:35:49;8.30;99.90
17968;DHT22;9109;48.050;11.696;2023-04-25T19:38:53;8.30;99.90
17968;DHT22;9109;48.050;11.696;2023-04-25T19:42:01;8.30;99.90
17968;DHT22;9109;48.050;11.696;2023-04-25T19:45:04;8.40;99.90
17968;DHT22;9109;48.050;11.696;2023-04-25T19:48:07;8.30;99.90
17968;DHT22;9109;48.050;11.696;2023-04-25T19:51:09;8.20;99.90
17968;DHT22;9109;48.050;11.696;2023-04-25T19:54:15;8.20;99.90
17968;DHT22;9109;48.050;11.696;2023-04-25T19:57:17;8.20;99.90
17968;DHT22;9109;48.050;11.696;2023-04-25T20:00:19;8.20;99.90
17968;DHT22;9109;48.050;11.696;2023-04-25T20:03:21;8.30;99.90
17968;DHT22;9109;48.050;11.696;2023-04-25T20:06:23;8.20;99.90
17968;DHT22;9109;48.050;11.696;2023-04-25T20:09:28;8.10;99.90
17968;DHT22;9109;48.050;11.696;2023-04-25T20:12:30;8.20;99.90
17968;DHT22;9109;48.050;11.696;2023-04-25T20:15:32;8.10;99.90
17968;DHT22;9109;48.050;11.696;2023-04-25T20:18:38;8.10;99.90
17968;DHT22;9109;48.050;11.696;2023-04-25T20:25:43;7.90;99.90
17968;DHT22;9109;48.050;11.696;2023-04-25T20:28:45;7.80;99.90
17968;DHT22;9109;48.050;11.696;2023-04-25T20:31:47;7.90;99.90
17968;DHT22;9109;48.050;11.696;2023-04-25T20:34:50;7.90;99.90
17968;DHT22;9109;48.050;11.696;2023-04-25T20:37:52;7.90;99.90
17968;DHT22;9109;48.050;11.696;2023-04-25T20:40:55;7.90;99.90
17968;DHT22;9109;48.050;11.696;2023-04-25T20:43:58;7.90;99.90
17968;DHT22;9109;48.050;11.696;2023-04-25T20:47:00;8.00;99.90
17968;DHT22;9109;48.050;11.696;2023-04-25T20:50:03;8.00;99.90
17968;DHT22;9109;48.050;11.696;2023-04-25T20:53:06;8.00;99.90
17968;DHT22;9109;48.050;11.696;2023-04-25T20:56:49;7.90;99.90
17968;DHT22;9109;48.050;11.696;2023-04-25T20:59:51;7.90;99.90
17968;DHT22;9109;48.050;11.696;2023-04-25T21:02:53;7.80;99.90
17968;DHT22;9109;48.050;11.696;2023-04-25T21:05:55;7.70;99.90
17968;DHT22;9109;48.050;11.696;2023-04-25T21:08:57;7.80;99.90
17968;DHT22;9109;48.050;11.696;2023-04-25T21:12:01;7.80;99.90
17968;DHT22;9109;48.050;11.696;2023-04-25T21:15:04;7.80;99.90
17968;DHT22;9109;48.050;11.696;2023-04-25T21:18:06;7.70;99.90
17968;DHT22;9109;48.050;11.696;2023-04-25T21:21:08;7.70;99.90
17968;DHT22;9109;48.050;11.696;2023-04-25T21:24:12;7.80;99.90
17968;DHT22;9109;48.050;11.696;2023-04-25T21:27:16;7.80;99.90
17968;DHT22;9109;48.050;11.696;2023-04-25T21:30:19;7.80;99.90
17968;DHT22;9109;48.050;11.696;2023-04-25T21:33:21;7.80;99.90
17968;DHT22;9109;48.050;11.696;2023-04-25T21:36:23;7.70;99.90
17968;DHT22;9109;48.050;11.696;2023-04-25T21:39:27;7.70;99.90
17968;DHT22;9109;48.050;11.696;2023-04-25T21:42:31;7.70;99.90
17968;DHT22;9109;48.050;11.696;2023-04-25T21:45:33;7.70;99.90
17968;DHT22;9109;48.050;11.696;2023-04-25T21:48:35;7.60;99.90
17968;DHT22;9109;48.050;11.696;2023-04-25T21:51:37;7.60;99.90
17968;DHT22;9109;48.050;11.696;2023-04-25T21:54:39;7.60;99.90
17968;DHT22;9109;48.050;11.696;2023-04-25T21:57:43;7.60;99.90
17968;DHT22;9109;48.050;11.696;2023-04-25T22:00:45;7.60;99.90
17968;DHT22;9109;48.050;11.696;2023-04-25T22:03:47;7.50;99.90
17968;DHT22;9109;48.050;11.696;2023-04-25T22:06:49;7.60;99.90
17968;DHT22;9109;48.050;11.696;2023-04-25T22:09:52;7.50;99.90
17968;DHT22;9109;48.050;11.696;2023-04-25T22:12:56;7.50;99.90
17968;DHT22;9109;48.050;11.696;2023-04-25T22:15:58;7.40;99.90
17968;DHT22;9109;48.050;11.696;2023-04-25T22:19:00;7.50;99.90
17968;DHT22;9109;48.050;11.696;2023-04-25T22:22:04;7.50;99.90
17968;DHT22;9109;48.050;11.696;2023-04-25T22:25:07;7.40;99.90
17968;DHT22;9109;48.050;11.696;2023-04-25T22:28:10;7.40;99.90
17968;DHT22;9109;48.050;11.696;2023-04-25T22:31:12;7.40;99.90
17968;DHT22;9109;48.050;11.696;2023-04-25T22:34:14;7.40;99.90
17968;DHT22;9109;48.050;11.696;2023-04-25T22:37:16;7.30;99.90
17968;DHT22;9109;48.050;11.696;2023-04-25T22:40:18;7.30;99.90
17968;DHT22;9109;48.050;11.696;2023-04-25T22:43:22;7.30;99.90
17968;DHT22;9109;48.050;11.696;2023-04-25T22:46:25;7.30;99.90
17968;DHT22;9109;48.050;11.696;2023-04-25T22:49:28;7.30;99.90
17968;DHT22;9109;48.050;11.696;2023-04-25T22:52:30;7.40;99.90
17968;DHT22;9109;48.050;11.696;2023-04-25T22:55:32;7.40;99.90
17968;DHT22;9109;48.050;11.696;2023-04-25T22:58:37;7.40;99.90
